createdAt,value
2017-05-19T00:00:15.623Z,46.66
2017-05-19T00:02:44.738Z,44.34
2017-05-19T00:05:14.530Z,43.18
2017-05-19T00:07:43.619Z,46.88
2017-05-19T00:10:12.737Z,47.02
2017-05-19T00:12:41.810Z,39.40
2017-05-19T00:15:12.063Z,43.22
2017-05-19T00:17:41.123Z,48.82
2017-05-19T00:20:10.227Z,50.00
2017-05-19T00:22:40.103Z,53.04
2017-05-19T00:25:09.170Z,51.42
2017-05-19T00:27:38.292Z,54.92
2017-05-19T00:30:07.359Z,47.24
2017-05-19T00:32:36.456Z,45.90
2017-05-19T00:35:05.525Z,50.38
2017-05-19T00:37:34.611Z,46.94
2017-05-19T00:40:03.855Z,42.52
2017-05-19T00:42:32.930Z,44.36
2017-05-19T00:45:02.436Z,45.20
2017-05-19T00:47:31.513Z,47.04
2017-05-19T00:50:01.394Z,45.36
2017-05-19T00:52:30.467Z,47.54
2017-05-19T00:54:59.587Z,36.22
2017-05-19T00:57:28.661Z,38.74
2017-05-19T00:59:57.779Z,43.22
2017-05-19T01:02:27.647Z,40.66
2017-05-19T01:04:56.743Z,44.16
2017-05-19T01:07:25.846Z,39.72
2017-05-19T01:09:54.937Z,43.84
2017-05-19T01:12:24.042Z,40.10
2017-05-19T01:14:53.160Z,47.78
2017-05-19T01:17:22.223Z,46.84
2017-05-19T01:19:51.327Z,43.02
2017-05-19T01:22:20.387Z,43.40
2017-05-19T01:24:49.515Z,45.00
2017-05-19T01:27:18.584Z,44.92
2017-05-19T01:29:47.679Z,43.14
2017-05-19T01:32:16.826Z,41.24
2017-05-19T01:34:45.898Z,34.48
2017-05-19T01:37:15.061Z,38.66
2017-05-19T01:39:44.123Z,40.02
2017-05-19T01:42:13.228Z,37.20
2017-05-19T01:44:43.097Z,33.88
2017-05-19T01:47:12.154Z,39.54
2017-05-19T01:49:41.267Z,38.66
2017-05-19T01:52:10.437Z,36.60
2017-05-19T01:54:39.459Z,41.78
2017-05-19T01:57:08.559Z,40.68
2017-05-19T01:59:37.663Z,41.92
2017-05-19T02:02:06.951Z,41.46
2017-05-19T02:04:36.063Z,38.40
2017-05-19T02:07:05.152Z,40.12
2017-05-19T02:09:34.310Z,34.74
2017-05-19T02:12:04.104Z,35.62
2017-05-19T02:14:33.966Z,36.22
2017-05-19T02:17:03.024Z,34.64
2017-05-19T02:19:32.167Z,34.22
2017-05-19T02:22:01.246Z,31.70
2017-05-19T02:24:30.379Z,28.24
2017-05-19T02:26:59.438Z,34.48
2017-05-19T02:29:28.534Z,31.52
2017-05-19T02:31:57.600Z,32.16
2017-05-19T02:34:27.435Z,31.78
2017-05-19T02:36:56.531Z,33.88
2017-05-19T02:39:25.639Z,32.24
2017-05-19T02:41:54.738Z,31.06
2017-05-19T02:44:23.839Z,34.22
2017-05-19T02:46:52.910Z,30.90
2017-05-19T02:49:22.027Z,34.64
2017-05-19T02:51:51.098Z,34.72
2017-05-19T02:54:20.218Z,32.04
2017-05-19T02:56:49.288Z,31.38
2017-05-19T02:59:18.420Z,28.64
2017-05-19T03:01:48.254Z,30.24
2017-05-19T03:04:18.111Z,28.34
2017-05-19T03:06:47.204Z,28.94
2017-05-19T03:09:16.299Z,30.22
2017-05-19T03:11:45.371Z,27.78
2017-05-19T03:14:14.479Z,25.06
2017-05-19T03:16:43.620Z,24.56
2017-05-19T03:19:12.715Z,24.66
2017-05-19T03:21:41.837Z,23.70
2017-05-19T03:24:10.933Z,22.34
2017-05-19T03:26:40.816Z,20.74
2017-05-19T03:29:09.871Z,20.14
2017-05-19T03:31:38.978Z,22.24
2017-05-19T03:34:08.098Z,17.50
2017-05-19T03:36:37.178Z,15.36
2017-05-19T03:39:06.283Z,15.90
2017-05-19T03:41:35.503Z,15.74
2017-05-19T03:44:05.380Z,19.62
2017-05-19T03:46:34.440Z,18.12
2017-05-19T03:49:04.272Z,16.88
2017-05-19T03:51:33.366Z,14.22
2017-05-19T03:54:02.555Z,12.92
2017-05-19T03:56:31.628Z,11.94
2017-05-19T03:59:00.739Z,14.86
2017-05-19T04:01:29.858Z,12.92
2017-05-19T04:03:58.933Z,13.64
2017-05-19T04:06:28.030Z,15.74
2017-05-19T04:08:57.107Z,13.90
2017-05-19T04:11:26.216Z,12.24
2017-05-19T04:13:55.328Z,12.18
2017-05-19T04:16:24.395Z,14.82
2017-05-19T04:18:54.232Z,14.56
2017-05-19T04:21:23.291Z,13.24
2017-05-19T04:23:52.439Z,14.20
2017-05-19T04:26:21.555Z,12.14
2017-05-19T04:28:50.679Z,11.24
2017-05-19T04:31:19.754Z,12.58
2017-05-19T04:33:49.617Z,15.38
2017-05-19T04:36:18.712Z,11.62
2017-05-19T04:38:47.830Z,14.70
2017-05-19T04:41:16.909Z,14.30
2017-05-19T04:43:46.023Z,15.32
2017-05-19T04:46:15.098Z,14.40
2017-05-19T04:48:44.232Z,12.30
2017-05-19T04:51:14.043Z,12.46
2017-05-19T04:53:43.180Z,13.26
2017-05-19T04:56:12.230Z,13.74
2017-05-19T04:58:41.344Z,13.98
2017-05-19T05:01:10.465Z,15.22
2017-05-19T05:03:39.539Z,13.34
2017-05-19T05:06:09.398Z,14.64
2017-05-19T05:08:38.490Z,14.52
2017-05-19T05:11:07.575Z,12.94
2017-05-19T05:13:36.674Z,14.98
2017-05-19T05:16:05.794Z,15.64
2017-05-19T05:18:34.870Z,14.66
2017-05-19T05:21:03.964Z,16.12
2017-05-19T05:23:33.039Z,17.56
2017-05-19T05:26:02.139Z,14.32
2017-05-19T05:28:31.253Z,17.64
2017-05-19T05:31:36.952Z,17.32
2017-05-19T05:34:05.287Z,16.62
2017-05-19T05:36:33.582Z,17.50
2017-05-19T05:39:01.884Z,16.82
2017-05-19T05:41:30.211Z,19.00
2017-05-19T05:43:58.498Z,19.74
2017-05-19T05:46:26.815Z,18.80
2017-05-19T05:48:55.191Z,21.12
2017-05-19T05:51:23.487Z,18.20
2017-05-19T05:53:51.774Z,15.18
2017-05-19T05:56:20.106Z,15.94
2017-05-19T05:58:48.414Z,16.76
2017-05-19T06:01:16.732Z,15.62
2017-05-19T06:03:45.093Z,14.58
2017-05-19T06:06:13.438Z,17.00
2017-05-19T06:08:41.735Z,17.82
2017-05-19T06:11:10.047Z,19.48
2017-05-19T06:13:38.395Z,20.30
2017-05-19T06:16:06.680Z,16.42
2017-05-19T06:18:35.000Z,15.80
2017-05-19T06:21:03.322Z,18.30
2017-05-19T06:23:31.613Z,18.94
2017-05-19T06:25:59.930Z,19.06
2017-05-19T06:28:28.282Z,17.62
2017-05-19T06:30:56.611Z,18.42
2017-05-19T06:33:24.892Z,22.30
2017-05-19T06:35:53.188Z,24.98
2017-05-19T06:38:21.553Z,27.68
2017-05-19T06:40:49.855Z,28.54
2017-05-19T06:43:17.379Z,27.48
2017-05-19T06:45:45.700Z,30.32
2017-05-19T06:48:14.011Z,28.38
2017-05-19T06:50:42.304Z,29.18
2017-05-19T06:53:10.636Z,31.04
2017-05-19T06:55:38.935Z,29.10
2017-05-19T06:58:07.233Z,26.88
2017-05-19T07:00:35.574Z,28.90
2017-05-19T07:03:03.906Z,30.34
2017-05-19T07:05:32.195Z,34.24
2017-05-19T07:08:00.480Z,29.40
2017-05-19T07:10:28.820Z,28.08
2017-05-19T07:12:57.116Z,26.40
2017-05-19T07:15:25.411Z,24.86
2017-05-19T07:17:53.781Z,25.90
2017-05-19T07:20:22.079Z,28.12
2017-05-19T07:22:50.387Z,25.30
2017-05-19T07:25:18.719Z,23.98
2017-05-19T07:27:47.021Z,22.98
2017-05-19T07:30:15.328Z,21.50
2017-05-19T07:32:43.666Z,23.80
2017-05-19T07:35:11.967Z,21.92
2017-05-19T07:37:40.264Z,19.84
2017-05-19T07:40:08.608Z,20.12
2017-05-19T07:42:36.895Z,19.74
2017-05-19T07:45:05.187Z,17.22
2017-05-19T07:47:33.546Z,17.62
2017-05-19T07:50:01.852Z,17.40
2017-05-19T07:52:29.375Z,15.68
2017-05-19T07:54:57.753Z,18.12
2017-05-19T07:57:26.049Z,18.88
2017-05-19T07:59:54.352Z,15.18
2017-05-19T08:02:22.666Z,14.24
2017-05-19T08:04:50.948Z,12.94
2017-05-19T08:07:19.243Z,12.82
2017-05-19T08:09:47.603Z,15.86
2017-05-19T08:12:15.883Z,13.64
2017-05-19T08:14:44.174Z,15.34
2017-05-19T08:17:12.507Z,15.50
2017-05-19T08:19:41.420Z,13.88
2017-05-19T08:22:09.707Z,16.70
2017-05-19T08:24:38.038Z,13.12
2017-05-19T08:27:06.348Z,14.72
2017-05-19T08:29:34.643Z,12.48
2017-05-19T08:32:03.004Z,14.24
2017-05-19T08:34:31.288Z,14.22
2017-05-19T08:36:59.567Z,14.24
2017-05-19T08:39:27.900Z,13.08
2017-05-19T08:41:56.189Z,12.48
2017-05-19T08:44:24.471Z,12.42
2017-05-19T08:46:52.786Z,11.94
2017-05-19T08:49:21.190Z,13.16
2017-05-19T08:51:49.506Z,14.96
2017-05-19T08:54:17.799Z,10.90
2017-05-19T08:56:46.132Z,11.16
2017-05-19T08:59:14.434Z,11.90
2017-05-19T09:01:42.732Z,10.66
2017-05-19T09:04:11.115Z,9.92
2017-05-19T09:06:39.405Z,9.08
2017-05-19T09:09:07.794Z,11.32
2017-05-19T09:11:36.130Z,12.32
2017-05-19T09:14:04.416Z,11.06
2017-05-19T09:16:32.711Z,11.68
2017-05-19T09:19:01.150Z,11.76
2017-05-19T09:21:29.447Z,11.66
2017-05-19T09:23:57.731Z,11.70
2017-05-19T09:26:26.443Z,9.46
2017-05-19T09:28:54.733Z,11.68
2017-05-19T09:31:23.066Z,10.72
2017-05-19T09:33:51.559Z,9.90
2017-05-19T09:36:19.858Z,11.34
2017-05-19T09:38:48.143Z,11.46
2017-05-19T09:41:16.811Z,8.78
2017-05-19T09:43:45.136Z,12.96
2017-05-19T09:46:13.445Z,10.98
2017-05-19T09:48:41.866Z,10.70
2017-05-19T09:51:10.152Z,12.66
2017-05-19T09:53:38.439Z,10.54
2017-05-19T09:56:06.969Z,10.74
2017-05-19T09:58:35.279Z,14.34
2017-05-19T10:01:03.562Z,14.02
2017-05-19T10:03:31.985Z,15.82
2017-05-19T10:06:00.268Z,12.42
2017-05-19T10:08:28.554Z,11.90
2017-05-19T10:10:56.862Z,13.80
2017-05-19T10:13:25.152Z,11.22
2017-05-19T10:15:53.572Z,15.84
2017-05-19T10:18:21.867Z,17.70
2017-05-19T10:20:50.158Z,14.50
2017-05-19T10:23:18.597Z,12.98
2017-05-19T10:25:46.936Z,12.96
2017-05-19T10:28:15.271Z,13.74
2017-05-19T10:30:43.680Z,13.40
2017-05-19T10:33:12.003Z,14.02
2017-05-19T10:35:39.535Z,11.48
2017-05-19T10:38:07.962Z,10.86
2017-05-19T10:40:36.261Z,11.60
2017-05-19T10:43:04.561Z,13.50
2017-05-19T10:45:32.994Z,10.44
2017-05-19T10:48:01.278Z,11.34
2017-05-19T10:50:29.694Z,11.98
2017-05-19T10:52:57.981Z,12.62
2017-05-19T10:55:26.275Z,12.20
2017-05-19T10:57:54.783Z,9.90
2017-05-19T11:00:23.074Z,10.70
2017-05-19T11:02:51.382Z,10.08
2017-05-19T11:05:19.808Z,9.24
2017-05-19T11:07:48.103Z,14.60
2017-05-19T11:10:16.399Z,11.32
2017-05-19T11:12:45.051Z,10.24
2017-05-19T11:15:13.365Z,10.30
2017-05-19T11:17:41.930Z,10.46
2017-05-19T11:20:10.425Z,8.98
2017-05-19T11:22:38.712Z,11.82
2017-05-19T11:25:07.032Z,12.08
2017-05-19T11:27:35.462Z,13.44
2017-05-19T11:30:03.747Z,11.56
2017-05-19T11:32:32.044Z,11.98
2017-05-19T11:35:00.498Z,13.32
2017-05-19T11:37:28.807Z,14.36
2017-05-19T11:39:57.451Z,15.24
2017-05-19T11:42:25.863Z,14.32
2017-05-19T11:44:54.158Z,13.08
2017-05-19T11:47:22.450Z,11.74
2017-05-19T11:49:50.880Z,13.52
2017-05-19T11:52:19.183Z,13.72
2017-05-19T11:54:47.480Z,11.86
2017-05-19T11:57:16.048Z,13.68
2017-05-19T11:59:44.328Z,14.42
2017-05-19T12:02:12.625Z,12.26
2017-05-19T12:04:41.052Z,13.92
2017-05-19T12:07:09.344Z,11.72
2017-05-19T12:09:49.593Z,13.32
2017-05-19T12:12:17.874Z,10.86
2017-05-19T12:14:46.176Z,9.74
2017-05-19T12:17:14.783Z,12.96
2017-05-19T12:19:43.087Z,12.52
2017-05-19T12:22:11.411Z,13.76
2017-05-19T12:24:40.022Z,12.62
2017-05-19T12:27:08.310Z,13.56
2017-05-19T12:29:36.598Z,14.08
2017-05-19T12:32:05.005Z,13.52
2017-05-19T12:34:33.299Z,14.08
2017-05-19T12:37:01.588Z,13.14
2017-05-19T12:39:30.191Z,14.26
2017-05-19T12:41:58.513Z,14.92
2017-05-19T12:44:26.808Z,14.94
2017-05-19T12:46:55.124Z,15.52
2017-05-19T12:49:23.465Z,13.20
2017-05-19T12:51:51.747Z,11.34
2017-05-19T12:54:20.068Z,11.96
2017-05-19T12:56:48.365Z,10.82
2017-05-19T12:59:16.780Z,13.04
2017-05-19T13:01:45.127Z,11.08
2017-05-19T13:04:13.423Z,13.36
2017-05-19T13:06:41.859Z,11.28
2017-05-19T13:09:10.177Z,11.76
2017-05-19T13:11:38.494Z,12.22
2017-05-19T13:14:06.914Z,11.30
2017-05-19T13:16:34.453Z,11.94
2017-05-19T13:19:02.751Z,13.86
2017-05-19T13:21:31.079Z,13.40
2017-05-19T13:23:59.371Z,12.00
2017-05-19T13:26:27.686Z,13.54
2017-05-19T13:28:55.987Z,10.90
2017-05-19T13:31:24.403Z,12.50
2017-05-19T13:33:52.686Z,16.06
2017-05-19T13:36:20.983Z,16.72
2017-05-19T13:38:49.406Z,15.34
2017-05-19T13:41:17.694Z,14.20
2017-05-19T13:43:45.987Z,14.18
2017-05-19T13:46:14.301Z,14.24
2017-05-19T13:48:42.598Z,14.82
2017-05-19T13:51:11.015Z,15.92
2017-05-19T13:53:39.293Z,16.24
2017-05-19T13:56:06.811Z,15.18
2017-05-19T13:58:35.139Z,14.22
2017-05-19T14:01:03.427Z,16.30
2017-05-19T14:03:31.735Z,12.86
2017-05-19T14:06:00.023Z,11.58
2017-05-19T14:08:28.642Z,13.30
2017-05-19T14:10:57.978Z,15.30
2017-05-19T14:13:26.264Z,14.82
2017-05-19T14:15:54.845Z,15.24
2017-05-19T14:18:23.140Z,17.70
2017-05-19T14:20:51.428Z,15.94
2017-05-19T14:23:19.983Z,16.04
2017-05-19T14:25:48.279Z,15.50
2017-05-19T14:28:16.577Z,15.48
2017-05-19T14:30:44.895Z,16.26
2017-05-19T14:33:13.188Z,16.16
2017-05-19T14:35:41.598Z,18.32
2017-05-19T14:38:09.895Z,19.80
2017-05-19T14:40:38.220Z,14.66
2017-05-19T14:43:06.679Z,15.20
2017-05-19T14:45:34.966Z,17.56
2017-05-19T14:48:03.254Z,17.00
2017-05-19T14:50:31.681Z,13.06
2017-05-19T14:52:59.971Z,14.32
2017-05-19T14:55:30.022Z,17.48
2017-05-19T14:57:58.392Z,17.66
2017-05-19T15:00:26.734Z,18.22
2017-05-19T15:02:55.355Z,16.44
2017-05-19T15:05:23.685Z,15.32
2017-05-19T15:07:52.014Z,17.00
2017-05-19T15:10:20.430Z,16.12
2017-05-19T15:12:48.723Z,14.08
2017-05-19T15:15:17.779Z,16.82
2017-05-19T15:17:46.204Z,13.36
2017-05-19T15:20:14.487Z,12.72
2017-05-19T15:22:42.771Z,14.54
2017-05-19T15:25:11.090Z,10.20
2017-05-19T15:27:39.375Z,12.52
2017-05-19T15:30:08.136Z,14.18
2017-05-19T15:32:36.429Z,14.36
2017-05-19T15:35:04.714Z,16.02
2017-05-19T15:37:33.027Z,12.48
2017-05-19T15:40:01.313Z,15.88
2017-05-19T15:42:29.628Z,15.22
2017-05-19T15:44:57.956Z,15.20
2017-05-19T15:47:26.668Z,17.36
2017-05-19T15:49:55.258Z,20.38
2017-05-19T15:52:23.565Z,20.12
2017-05-19T15:54:51.984Z,22.02
2017-05-19T15:57:20.259Z,26.90
2017-05-19T15:59:48.543Z,26.96
2017-05-19T16:02:16.960Z,26.38
2017-05-19T16:04:45.247Z,25.52
2017-05-19T16:07:13.535Z,25.32
2017-05-19T16:09:42.013Z,25.06
2017-05-19T16:12:10.299Z,26.50
2017-05-19T16:14:38.587Z,25.22
2017-05-19T16:17:06.895Z,23.96
2017-05-19T16:19:35.180Z,23.90
2017-05-19T16:22:03.494Z,20.56
2017-05-19T16:24:31.776Z,24.14
2017-05-19T16:27:00.193Z,20.62
2017-05-19T16:29:28.480Z,21.68
2017-05-19T16:31:56.759Z,22.14
2017-05-19T16:34:25.241Z,25.70
2017-05-19T16:36:53.527Z,22.16
2017-05-19T16:39:21.832Z,23.82
2017-05-19T16:41:50.467Z,24.36
2017-05-19T16:44:18.755Z,24.82
2017-05-19T16:46:47.072Z,23.60
2017-05-19T16:49:15.395Z,23.46
2017-05-19T16:51:43.678Z,26.58
2017-05-19T16:54:12.001Z,25.10
2017-05-19T16:56:40.300Z,28.00
2017-05-19T16:59:08.719Z,26.24
2017-05-19T17:01:37.006Z,22.64
2017-05-19T17:04:05.287Z,24.72
2017-05-19T17:06:33.695Z,24.38
2017-05-19T17:09:01.971Z,25.92
2017-05-19T17:11:30.254Z,28.12
2017-05-19T17:13:58.894Z,30.70
2017-05-19T17:16:27.185Z,33.64
2017-05-19T17:18:55.473Z,33.64
2017-05-19T17:21:23.795Z,37.16
2017-05-19T17:23:52.079Z,36.58
2017-05-19T17:26:20.503Z,35.72
2017-05-19T17:28:48.841Z,35.72
2017-05-19T17:31:17.135Z,36.70
2017-05-19T17:33:45.901Z,35.08
2017-05-19T17:36:14.188Z,34.38
2017-05-19T17:38:42.477Z,34.80
2017-05-19T17:41:10.887Z,35.16
2017-05-19T17:43:39.171Z,28.72
2017-05-19T17:46:06.688Z,32.70
2017-05-19T17:48:35.249Z,33.70
2017-05-19T17:51:03.535Z,32.44
2017-05-19T17:53:31.831Z,36.82
2017-05-19T17:56:00.156Z,35.22
2017-05-19T17:58:28.443Z,38.26
2017-05-19T18:00:56.936Z,37.94
2017-05-19T18:03:25.233Z,36.58
2017-05-19T18:05:53.522Z,36.92
2017-05-19T18:08:21.841Z,37.54
2017-05-19T18:10:50.139Z,37.32
2017-05-19T18:13:18.563Z,35.98
2017-05-19T18:15:46.896Z,34.34
2017-05-19T18:18:15.191Z,43.90
2017-05-19T18:20:43.607Z,36.54
2017-05-19T18:23:11.888Z,37.82
2017-05-19T18:25:40.183Z,39.44
2017-05-19T18:28:08.491Z,38.10
2017-05-19T18:30:36.770Z,39.08
2017-05-19T18:33:05.185Z,38.52
2017-05-19T18:35:34.640Z,40.20
2017-05-19T18:38:02.931Z,38.88
2017-05-19T18:40:31.344Z,40.84
2017-05-19T18:42:59.660Z,43.52
2017-05-19T18:45:27.984Z,42.46
2017-05-19T18:47:56.636Z,39.48
2017-05-19T18:50:24.948Z,43.02
2017-05-19T18:52:53.234Z,40.12
2017-05-19T18:55:21.855Z,43.52
2017-05-19T18:57:50.155Z,41.92
2017-05-19T19:00:18.464Z,43.26
2017-05-19T19:02:47.239Z,41.82
2017-05-19T19:05:15.523Z,41.10
2017-05-19T19:07:43.823Z,43.92
2017-05-19T19:10:12.543Z,46.86
2017-05-19T19:12:40.826Z,48.06
2017-05-19T19:15:09.116Z,50.96
2017-05-19T19:17:37.447Z,46.58
2017-05-19T19:20:05.733Z,52.80
2017-05-19T19:22:34.459Z,47.56
2017-05-19T19:25:02.787Z,44.48
2017-05-19T19:27:31.087Z,48.50
2017-05-19T19:29:59.390Z,46.84
2017-05-19T19:32:27.678Z,45.60
2017-05-19T19:34:56.088Z,42.20
2017-05-19T19:37:24.453Z,45.36
2017-05-19T19:39:52.747Z,44.38
2017-05-19T19:42:21.160Z,41.22
2017-05-19T19:44:49.478Z,42.42
2017-05-19T19:47:17.763Z,40.40
2017-05-19T19:49:46.181Z,44.20
2017-05-19T19:52:14.477Z,40.02
2017-05-19T19:54:42.767Z,40.92
2017-05-19T19:57:11.413Z,36.96
2017-05-19T19:59:39.703Z,36.82
2017-05-19T20:02:07.987Z,34.78
2017-05-19T20:04:36.291Z,33.84
2017-05-19T20:07:04.844Z,32.76
2017-05-19T20:09:33.275Z,27.38
2017-05-19T20:12:01.608Z,34.04
2017-05-19T20:14:29.952Z,31.82
2017-05-19T20:16:58.279Z,32.38
2017-05-19T20:19:26.557Z,30.40
2017-05-19T20:21:54.967Z,34.52
2017-05-19T20:24:23.268Z,35.06
2017-05-19T20:26:51.588Z,32.04
2017-05-19T20:29:20.003Z,31.24
2017-05-19T20:31:48.302Z,33.68
2017-05-19T20:34:16.656Z,37.66
2017-05-19T20:36:44.961Z,38.32
2017-05-19T20:39:13.253Z,35.66
2017-05-19T20:41:42.023Z,37.54
2017-05-19T20:44:10.304Z,39.66
2017-05-19T20:46:38.596Z,35.70
2017-05-19T20:49:06.915Z,37.78
2017-05-19T20:51:35.211Z,39.96
2017-05-19T20:54:03.510Z,37.66
2017-05-19T20:56:31.795Z,41.06
2017-05-19T20:59:00.359Z,37.02
2017-05-19T21:01:28.664Z,39.48
2017-05-19T21:03:56.947Z,40.18
2017-05-19T21:06:25.371Z,39.50
2017-05-19T21:08:53.707Z,46.16
2017-05-19T21:11:21.235Z,44.56
2017-05-19T21:13:49.647Z,46.20
2017-05-19T21:16:17.938Z,42.48
2017-05-19T21:18:46.232Z,43.02
2017-05-19T21:21:14.669Z,41.46
2017-05-19T21:23:42.950Z,44.58
2017-05-19T21:26:11.231Z,43.22
2017-05-19T21:28:39.692Z,45.58
2017-05-19T21:31:08.019Z,40.64
2017-05-19T21:33:36.299Z,41.24
2017-05-19T21:36:04.606Z,47.22
2017-05-19T21:38:32.887Z,39.10
2017-05-19T21:41:01.326Z,42.24
2017-05-19T21:43:29.602Z,38.02
2017-05-19T21:45:57.887Z,38.60
2017-05-19T21:48:26.193Z,33.62
2017-05-19T21:50:54.495Z,35.28
2017-05-19T21:53:22.903Z,35.52
2017-05-19T21:55:51.203Z,35.12
2017-05-19T21:58:19.487Z,33.30
2017-05-19T22:00:47.796Z,31.60
2017-05-19T22:03:16.083Z,33.90
2017-05-19T22:05:44.618Z,32.76
2017-05-19T22:08:12.899Z,36.26
2017-05-19T22:10:41.187Z,32.18
2017-05-19T22:13:09.610Z,30.64
2017-05-19T22:15:37.897Z,28.96
2017-05-19T22:18:06.179Z,23.72
2017-05-19T22:20:34.483Z,22.26
2017-05-19T22:23:02.770Z,25.14
2017-05-19T22:25:31.192Z,24.98
2017-05-19T22:27:59.484Z,26.40
2017-05-19T22:30:27.780Z,31.14
2017-05-19T22:32:56.126Z,31.38
2017-05-19T22:35:24.407Z,32.70
2017-05-19T22:37:53.119Z,31.04
2017-05-19T22:40:21.398Z,32.60
2017-05-19T22:42:49.772Z,30.88
2017-05-19T22:45:18.196Z,27.62
2017-05-19T22:47:46.476Z,24.04
2017-05-19T22:50:14.793Z,26.26
2017-05-19T22:52:43.380Z,23.62
2017-05-19T22:55:11.709Z,25.22
2017-05-19T22:57:39.984Z,23.38
2017-05-19T23:00:08.743Z,24.86
2017-05-19T23:02:37.024Z,23.52
2017-05-19T23:05:05.316Z,30.42
2017-05-19T23:07:33.623Z,24.62
2017-05-19T23:10:01.902Z,27.72
2017-05-19T23:12:30.607Z,25.98
2017-05-19T23:14:58.895Z,30.16
2017-05-19T23:17:27.201Z,28.40
2017-05-19T23:19:55.514Z,31.34
2017-05-19T23:22:23.794Z,32.62
2017-05-19T23:24:52.251Z,33.08
2017-05-19T23:27:20.547Z,32.06
2017-05-19T23:29:48.827Z,33.30
2017-05-19T23:32:17.129Z,32.82
2017-05-19T23:34:45.410Z,31.56
2017-05-19T23:37:13.832Z,29.94
2017-05-19T23:39:42.111Z,32.84
2017-05-19T23:42:10.411Z,32.20
2017-05-19T23:44:38.718Z,33.68
2017-05-19T23:47:07.007Z,32.90
2017-05-19T23:49:35.307Z,31.20
2017-05-19T23:52:03.583Z,35.00
2017-05-19T23:54:31.998Z,35.78
2017-05-19T23:57:00.287Z,35.74
2017-05-19T23:59:28.582Z,39.96
